Talla Bena, Louisiana
Current Conditions -  °F | °C
As of 4:53 PM on Wednesday 17 Dec 2014 (Local Time) from KTVR Reporting Station
Overcast Overcast  
Wind Chill: 53°   Ceiling: 10000
Heat Index: 53°   Visibility: 10mi
Dew Point: 39°   Wind: 5mph
Humidity: 59%   Direction: 350°N
Pressure: 30.2"   Gusts: NA
Location:  32.5752°N, 91.2825°W
Report Text: KTVR 172253Z AUTO 35004KT 10SM OVC100 12/04 A3020 RMK AO2 SLP234 T01170039
Loading
Personal Weather Stations






























Interactive Weather Map New forecast layout! Learn more

10-Day Weather Forecast

Advertisements
Track Severe Weather on mobile